Terminal Aerodrome Forecast
Issued by NWS North Platte, NE

Home | Current Version | Previous Version | Text Only | Print | Product List | Glossary On
Versions: 1 2 3 4 5 6 7 8 9 10 11 12 13 14 15 16 17 18 19 20 21 22
000
FTUS43 KLBF 271700
TAFVTN
TAF
KVTN 271732Z 2718/2818 17014G21KT P6SM BKN060 OVC090
     FM272300 16014G22KT P6SM VCTS SCT070CB BKN200
     FM280300 17011KT P6SM BKN100
     FM281100 18006KT P6SM BKN015
     FM281500 20010KT P6SM BKN020=

USA.gov is the U.S. government's official web portal to all federal, state and local government web resources and services.